Overview Statistics Trail Chart Weather Telemetry Raw packets
 

This is the latest recevied weather packets stored in our database for station/object OE6JVE-13. If no packets are shown the sender has not sent any weather packets the latest 10 day(s).

<< 42 43 44 45 46 47 48 >>
Time Temp. Humidity Pressure Rain* Wind** Luminosity Snow
1787962872 20.56° C 75% 1003.5 hPa 0 mm - - -
1787962280 20.56° C 78% 1003.7 hPa 0 mm - - -
1787961623 20.56° C 81% 1003.5 hPa 0 mm - - -
1787961030 20.56° C 81% 1003.6 hPa 0 mm - - -
1787960484 20.56° C 83% 1003.5 hPa 0 mm - - -
1787959879 20.56° C 84% 1003.7 hPa 0 mm - - -
1787959344 21.11° C 82% 1003.7 hPa 0 mm - - -
1787958662 21.67° C 81% 1003.6 hPa 0 mm - - -
1787958070 21.67° C 81% 1003.3 hPa 0 mm - - -
1787957477 21.67° C 81% 1003.4 hPa 0 mm - - -
1787956820 22.78° C 74% 1003.3 hPa 0 mm - - -
1787956235 24.44° C 65% 1003.5 hPa 0 mm - - -
1787955043 27.22° C 51% 1005.7 hPa 0 mm - - -
1787953859 25° C 62% 1004.6 hPa 0 mm - - -
1787953267 22.22° C 79% 1003.9 hPa 0 mm - - -
1787952055 20.56° C 96% 1003.9 hPa 0 mm - - -
1787950836 21.11° C 95% 1003.5 hPa 0 mm - - -
1787949749 21.11° C 95% 1003.3 hPa 0 mm - - -
1787948512 21.11° C 95% 1003.6 hPa 0 mm - - -
1787947874 21.11° C 94% 1003.6 hPa 0 mm - - -
1787947285 21.11° C 93% 1003.5 hPa 0 mm - - -
1787946815 21.11° C 93% 1003.7 hPa 0 mm - - -
1787944846 21.67° C 92% 1003.4 hPa 0 mm - - -
1787944254 21.67° C 91% 1003.2 hPa 0 mm - - -
1787943662 21.67° C 91% 1003.1 hPa 0 mm - - -

* Rain latest hour (hover to see other rain measurements)
** Current wind speed in m/s (hover to see current wind gust speed)